createdAt,value
2023-03-25T00:00:15.697Z,10.98
2023-03-25T00:02:48.524Z,10.91
2023-03-25T00:05:17.078Z,11.04
2023-03-25T00:07:45.019Z,11.09
2023-03-25T00:10:13.792Z,10.93
2023-03-25T00:12:41.358Z,10.94
2023-03-25T00:15:09.540Z,10.93
2023-03-25T00:17:37.077Z,11.04
2023-03-25T00:20:11.334Z,10.99
2023-03-25T00:22:41.765Z,10.94
2023-03-25T00:25:17.992Z,10.90
2023-03-25T00:27:46.870Z,10.83
2023-03-25T00:30:18.673Z,10.77
2023-03-25T00:32:53.231Z,10.90
2023-03-25T00:35:20.507Z,10.86
2023-03-25T00:38:00.331Z,10.67
2023-03-25T00:40:28.631Z,10.77
2023-03-25T00:42:55.787Z,10.86
2023-03-25T00:45:22.978Z,10.78
2023-03-25T00:47:51.210Z,10.69
2023-03-25T00:50:18.072Z,10.67
2023-03-25T00:52:45.367Z,10.68
2023-03-25T00:55:12.442Z,10.65
2023-03-25T00:57:39.325Z,10.58
2023-03-25T01:00:09.737Z,10.60
2023-03-25T01:02:36.639Z,10.57
2023-03-25T01:05:04.586Z,10.61
2023-03-25T01:07:32.338Z,10.67
2023-03-25T01:09:59.999Z,10.52
2023-03-25T01:12:27.465Z,10.53
2023-03-25T01:14:54.619Z,10.52
2023-03-25T01:17:21.430Z,10.47
2023-03-25T01:19:48.217Z,10.44
2023-03-25T01:22:15.103Z,10.44
2023-03-25T01:24:42.443Z,10.40
2023-03-25T01:27:09.246Z,10.43
2023-03-25T01:29:36.210Z,10.43
2023-03-25T01:32:03.125Z,10.47
2023-03-25T01:34:32.748Z,10.44
2023-03-25T01:37:00.162Z,10.45
2023-03-25T01:39:26.973Z,10.46
2023-03-25T01:41:55.457Z,10.32
2023-03-25T01:44:22.655Z,10.35
2023-03-25T01:46:53.934Z,10.35
2023-03-25T01:49:24.848Z,10.41
2023-03-25T01:51:55.409Z,10.35
2023-03-25T01:54:22.462Z,10.35
2023-03-25T01:56:50.163Z,10.46
2023-03-25T01:59:19.424Z,10.35
2023-03-25T02:01:49.369Z,10.42
2023-03-25T02:04:35.082Z,9.99
2023-03-25T02:07:02.320Z,10.09
2023-03-25T02:09:29.228Z,10.27
2023-03-25T02:11:56.088Z,10.20
2023-03-25T02:14:25.970Z,10.24
2023-03-25T02:17:05.494Z,10.32
2023-03-25T02:19:38.360Z,10.32
2023-03-25T02:22:38.102Z,10.40
2023-03-25T02:25:35.657Z,10.48
2023-03-25T02:28:26.160Z,10.41
2023-03-25T02:31:34.618Z,10.53
2023-03-25T02:34:11.387Z,10.60
2023-03-25T02:37:03.523Z,10.58
2023-03-25T02:39:47.440Z,10.57
2023-03-25T02:42:38.463Z,10.62
2023-03-25T02:45:09.429Z,10.69
2023-03-25T02:47:40.078Z,10.60
2023-03-25T02:50:11.145Z,10.58
2023-03-25T02:52:45.097Z,10.61
2023-03-25T02:55:15.227Z,10.57
2023-03-25T02:57:46.202Z,10.59
2023-03-25T03:00:15.967Z,10.68
2023-03-25T03:02:53.655Z,10.71
2023-03-25T03:05:30.105Z,10.75
2023-03-25T03:08:19.742Z,10.78
2023-03-25T03:11:05.414Z,10.80
2023-03-25T03:13:53.427Z,10.91
2023-03-25T03:16:58.684Z,10.84
2023-03-25T03:19:40.597Z,10.68
2023-03-25T03:22:35.197Z,10.77
2023-03-25T03:25:32.905Z,10.78
2023-03-25T03:28:07.172Z,10.74
2023-03-25T03:30:50.160Z,10.73
2023-03-25T03:33:22.012Z,10.71
2023-03-25T03:35:57.571Z,10.61
2023-03-25T03:38:32.933Z,10.66
2023-03-25T03:41:10.240Z,10.67
2023-03-25T03:43:51.425Z,10.72
2023-03-25T03:46:34.850Z,10.76
2023-03-25T03:49:06.087Z,10.74
2023-03-25T03:51:39.049Z,10.77
2023-03-25T03:54:06.757Z,10.90
2023-03-25T03:56:46.736Z,10.88
2023-03-25T03:59:21.277Z,10.81
2023-03-25T04:01:54.364Z,10.92
2023-03-25T04:04:24.026Z,10.73
2023-03-25T04:07:14.880Z,10.76
2023-03-25T04:09:55.267Z,10.82
2023-03-25T04:12:27.527Z,10.79
2023-03-25T04:15:01.079Z,10.83
2023-03-25T04:17:30.373Z,10.88
2023-03-25T04:19:57.395Z,10.90
2023-03-25T04:22:24.884Z,10.86
2023-03-25T04:24:52.206Z,10.76
2023-03-25T04:27:20.122Z,10.79
2023-03-25T04:29:47.975Z,10.73
2023-03-25T04:32:14.975Z,10.64
2023-03-25T04:34:41.984Z,10.59
2023-03-25T04:37:08.826Z,10.59
2023-03-25T04:39:35.642Z,10.51
2023-03-25T04:42:03.784Z,10.53
2023-03-25T04:44:33.947Z,10.45
2023-03-25T04:47:02.472Z,10.49
2023-03-25T04:49:29.298Z,10.58
2023-03-25T04:51:57.223Z,10.46
2023-03-25T04:54:24.120Z,10.46
2023-03-25T04:56:52.096Z,10.44
2023-03-25T04:59:20.317Z,10.41
2023-03-25T05:01:47.796Z,10.50
2023-03-25T05:04:17.844Z,10.40
2023-03-25T05:06:50.723Z,10.42
2023-03-25T05:09:22.336Z,10.40
2023-03-25T05:11:50.401Z,10.30
2023-03-25T05:14:19.022Z,10.28
2023-03-25T05:16:46.730Z,10.36
2023-03-25T05:19:14.960Z,10.30
2023-03-25T05:21:42.524Z,10.43
2023-03-25T05:24:10.917Z,10.48
2023-03-25T05:26:39.944Z,10.45
2023-03-25T05:29:09.411Z,10.42
2023-03-25T05:31:36.554Z,10.36
2023-03-25T05:34:06.894Z,10.53
2023-03-25T05:36:33.796Z,10.62
2023-03-25T05:39:00.867Z,10.76
2023-03-25T05:41:33.075Z,10.69
2023-03-25T05:44:01.033Z,10.67
2023-03-25T05:46:31.110Z,10.77
2023-03-25T05:48:58.201Z,10.72
2023-03-25T05:51:26.120Z,10.66
2023-03-25T05:53:53.467Z,10.76
2023-03-25T05:56:21.807Z,10.80
2023-03-25T05:58:51.342Z,10.75
2023-03-25T06:01:31.986Z,10.81
2023-03-25T06:04:02.097Z,10.97
2023-03-25T06:06:29.604Z,10.91
2023-03-25T06:08:56.472Z,10.86
2023-03-25T06:11:23.244Z,10.90
2023-03-25T06:13:50.222Z,10.96
2023-03-25T06:16:19.858Z,10.92
2023-03-25T06:18:50.972Z,10.91
2023-03-25T06:21:19.178Z,10.95
2023-03-25T06:23:48.353Z,11.12
2023-03-25T06:26:18.609Z,11.07
2023-03-25T06:28:46.317Z,11.13
2023-03-25T06:31:18.799Z,11.18
2023-03-25T06:33:46.021Z,11.23
2023-03-25T06:36:15.658Z,11.17
2023-03-25T06:38:42.542Z,11.26
2023-03-25T06:41:14.091Z,11.12
2023-03-25T06:43:43.266Z,11.27
2023-03-25T06:46:28.798Z,11.22
2023-03-25T06:49:10.191Z,11.21
2023-03-25T06:51:36.944Z,11.26
2023-03-25T06:54:03.736Z,11.21
2023-03-25T06:56:30.627Z,11.25
2023-03-25T06:58:57.460Z,11.22
2023-03-25T07:01:24.374Z,11.22
2023-03-25T07:03:51.194Z,11.25
2023-03-25T07:06:20.681Z,11.28
2023-03-25T07:08:48.038Z,11.40
2023-03-25T07:11:15.906Z,11.42
2023-03-25T07:13:42.678Z,11.55
2023-03-25T07:16:10.160Z,11.53
2023-03-25T07:18:41.441Z,11.75
2023-03-25T07:21:08.376Z,11.78
2023-03-25T07:23:35.150Z,11.92
2023-03-25T07:26:02.006Z,12.08
2023-03-25T07:28:28.833Z,12.20
2023-03-25T07:30:55.637Z,12.38
2023-03-25T07:33:22.427Z,12.47
2023-03-25T07:35:49.405Z,12.64
2023-03-25T07:38:16.362Z,12.89
2023-03-25T07:40:43.194Z,13.08
2023-03-25T07:43:16.933Z,13.20
2023-03-25T07:45:54.213Z,13.03
2023-03-25T07:48:22.978Z,13.19
2023-03-25T07:50:51.753Z,13.17
2023-03-25T07:53:18.575Z,13.19
2023-03-25T07:55:51.332Z,13.11
2023-03-25T07:58:19.441Z,13.30
2023-03-25T08:00:46.562Z,13.55
2023-03-25T08:03:14.363Z,13.69
2023-03-25T08:05:47.267Z,13.83
2023-03-25T08:08:14.669Z,14.11
2023-03-25T08:10:43.786Z,14.13
2023-03-25T08:13:11.086Z,14.27
2023-03-25T08:15:38.295Z,14.23
2023-03-25T08:18:06.737Z,14.45
2023-03-25T08:20:34.729Z,14.79
2023-03-25T08:23:03.124Z,14.62
2023-03-25T08:25:32.881Z,14.70
2023-03-25T08:27:59.640Z,14.81
2023-03-25T08:30:26.497Z,14.80
2023-03-25T08:32:56.196Z,14.81
2023-03-25T08:35:24.303Z,14.87
2023-03-25T08:37:51.713Z,14.81
2023-03-25T08:40:18.850Z,14.97
2023-03-25T08:42:46.570Z,15.01
2023-03-25T08:45:15.523Z,14.90
2023-03-25T08:47:43.619Z,15.02
2023-03-25T08:50:10.839Z,15.12
2023-03-25T08:52:37.766Z,15.19
2023-03-25T08:55:09.675Z,15.15
2023-03-25T08:57:38.106Z,15.01
2023-03-25T09:00:13.252Z,14.59
2023-03-25T09:02:41.294Z,14.67
2023-03-25T09:05:09.667Z,14.53
2023-03-25T09:07:37.191Z,14.58
2023-03-25T09:10:05.162Z,14.51
2023-03-25T09:12:32.083Z,14.49
2023-03-25T09:14:58.855Z,14.27
2023-03-25T09:17:25.823Z,14.20
2023-03-25T09:19:54.241Z,14.26
2023-03-25T09:22:21.617Z,14.03
2023-03-25T09:24:48.408Z,14.07
2023-03-25T09:27:15.188Z,14.21
2023-03-25T09:29:42.249Z,14.28
2023-03-25T09:32:09.561Z,14.41
2023-03-25T09:34:38.361Z,14.47
2023-03-25T09:37:05.253Z,14.97
2023-03-25T09:39:32.097Z,15.34
2023-03-25T09:42:04.905Z,15.71
2023-03-25T09:44:39.638Z,16.03
2023-03-25T09:47:09.653Z,16.00
2023-03-25T09:49:46.909Z,15.57
2023-03-25T09:52:17.772Z,15.76
2023-03-25T09:54:50.829Z,16.03
2023-03-25T09:57:23.518Z,16.60
2023-03-25T09:59:51.951Z,16.41
2023-03-25T10:02:21.865Z,16.33
2023-03-25T10:05:08.898Z,15.90
2023-03-25T10:07:54.614Z,16.40
2023-03-25T10:10:34.743Z,16.56
2023-03-25T10:13:10.707Z,17.12
2023-03-25T10:15:44.364Z,17.42
2023-03-25T10:18:36.467Z,17.45
2023-03-25T10:21:12.149Z,17.36
2023-03-25T10:23:46.217Z,17.40
2023-03-25T10:26:17.529Z,17.41
2023-03-25T10:28:53.695Z,17.27
2023-03-25T10:31:23.010Z,17.08
2023-03-25T10:33:54.429Z,16.78
2023-03-25T10:36:28.568Z,17.38
2023-03-25T10:38:55.864Z,17.52
2023-03-25T10:41:32.326Z,17.34
2023-03-25T10:43:59.149Z,17.69
2023-03-25T10:46:38.848Z,17.80
2023-03-25T10:49:05.707Z,17.53
2023-03-25T10:51:34.062Z,17.48
2023-03-25T10:54:01.038Z,17.76
2023-03-25T10:56:33.534Z,17.52
2023-03-25T10:59:03.742Z,17.78
2023-03-25T11:01:44.071Z,18.09
2023-03-25T11:04:14.474Z,18.09
2023-03-25T11:06:43.151Z,18.28
2023-03-25T11:09:30.582Z,18.33
2023-03-25T11:12:01.502Z,17.93
2023-03-25T11:14:30.128Z,17.21
2023-03-25T11:17:04.155Z,17.24
2023-03-25T11:19:31.994Z,17.36
2023-03-25T11:22:09.375Z,17.64
2023-03-25T11:24:41.508Z,17.61
2023-03-25T11:27:09.308Z,17.41
2023-03-25T11:29:37.065Z,17.20
2023-03-25T11:32:11.531Z,16.80
2023-03-25T11:34:47.619Z,16.56
2023-03-25T11:37:22.600Z,16.21
2023-03-25T11:39:52.242Z,16.09
2023-03-25T11:42:22.546Z,16.65
2023-03-25T11:44:53.898Z,17.04
2023-03-25T11:47:26.158Z,16.64
2023-03-25T11:49:53.843Z,16.42
2023-03-25T11:52:26.355Z,16.41
2023-03-25T11:54:54.345Z,16.33
2023-03-25T11:57:25.932Z,16.02
2023-03-25T12:00:07.069Z,16.20
2023-03-25T12:02:40.411Z,16.64
2023-03-25T12:05:13.302Z,17.58
2023-03-25T12:07:51.261Z,18.33
2023-03-25T12:10:28.371Z,18.72
2023-03-25T12:12:58.334Z,18.69
2023-03-25T12:15:41.586Z,18.90
2023-03-25T12:18:11.666Z,18.62
2023-03-25T12:20:46.889Z,18.51
2023-03-25T12:23:25.822Z,17.95
2023-03-25T12:26:06.955Z,17.36
2023-03-25T12:29:00.757Z,17.46
2023-03-25T12:31:43.758Z,17.75
2023-03-25T12:34:19.744Z,17.95
2023-03-25T12:36:55.523Z,19.08
2023-03-25T12:39:42.181Z,20.71
2023-03-25T12:42:37.614Z,20.83
2023-03-25T12:45:35.662Z,19.70
2023-03-25T12:48:11.556Z,19.08
2023-03-25T12:51:00.288Z,18.56
2023-03-25T12:53:27.013Z,18.03
2023-03-25T12:55:53.793Z,16.93
2023-03-25T12:58:42.426Z,16.61
2023-03-25T13:01:35.385Z,15.99
2023-03-25T13:04:14.270Z,15.80
2023-03-25T13:06:48.760Z,14.72
2023-03-25T13:09:22.136Z,14.35
2023-03-25T13:11:58.635Z,14.74
2023-03-25T13:14:36.348Z,15.00
2023-03-25T13:17:07.665Z,14.97
2023-03-25T13:19:39.517Z,14.52
2023-03-25T13:22:16.870Z,14.19
2023-03-25T13:24:56.283Z,14.02
2023-03-25T13:27:23.681Z,13.72
2023-03-25T13:29:53.235Z,13.59
2023-03-25T13:32:48.393Z,13.66
2023-03-25T13:35:25.973Z,13.63
2023-03-25T13:37:56.581Z,13.37
2023-03-25T13:40:29.623Z,12.99
2023-03-25T13:43:00.126Z,12.86
2023-03-25T13:45:33.914Z,13.40
2023-03-25T13:48:12.652Z,13.59
2023-03-25T13:50:39.786Z,13.97
2023-03-25T13:53:28.311Z,14.23
2023-03-25T13:56:07.309Z,14.27
2023-03-25T13:59:10.000Z,14.22
2023-03-25T14:02:11.146Z,14.18
2023-03-25T14:05:06.522Z,14.04
2023-03-25T14:07:33.426Z,13.88
2023-03-25T14:10:12.912Z,13.88
2023-03-25T14:12:46.001Z,13.84
2023-03-25T14:15:16.346Z,13.81
2023-03-25T14:17:45.678Z,13.95
2023-03-25T14:20:18.058Z,14.02
2023-03-25T14:22:45.136Z,14.16
2023-03-25T14:25:20.411Z,14.19
2023-03-25T14:27:51.518Z,14.22
2023-03-25T14:30:27.637Z,14.10
2023-03-25T14:32:57.803Z,14.27
2023-03-25T14:35:34.166Z,14.38
2023-03-25T14:38:22.265Z,14.53
2023-03-25T14:41:02.938Z,14.54
2023-03-25T14:43:37.682Z,14.65
2023-03-25T14:46:14.824Z,14.47
2023-03-25T14:48:48.025Z,14.49
2023-03-25T14:51:22.869Z,14.37
2023-03-25T14:53:55.196Z,14.30
2023-03-25T14:56:32.030Z,14.35
2023-03-25T14:59:06.645Z,14.41
2023-03-25T15:01:35.683Z,14.45
2023-03-25T15:04:13.266Z,14.38
2023-03-25T15:06:40.736Z,14.36
2023-03-25T15:09:13.539Z,14.23
2023-03-25T15:11:43.299Z,14.14
2023-03-25T15:14:19.771Z,14.20
2023-03-25T15:16:47.733Z,14.22
2023-03-25T15:19:16.511Z,14.13
2023-03-25T15:21:58.649Z,13.99
2023-03-25T15:24:38.773Z,13.95
2023-03-25T15:27:17.082Z,13.83
2023-03-25T15:30:02.699Z,13.88
2023-03-25T15:32:53.140Z,13.88
2023-03-25T15:35:38.807Z,13.83
2023-03-25T15:38:30.785Z,13.68
2023-03-25T15:41:13.120Z,13.78
2023-03-25T15:44:00.592Z,13.79
2023-03-25T15:46:56.238Z,13.86
2023-03-25T15:49:33.526Z,13.58
2023-03-25T15:52:09.371Z,13.61
2023-03-25T15:54:48.657Z,13.62
2023-03-25T15:57:17.299Z,13.52
2023-03-25T15:59:52.268Z,13.49
2023-03-25T16:02:28.839Z,13.61
2023-03-25T16:04:56.008Z,13.63
2023-03-25T16:07:25.040Z,13.62
2023-03-25T16:09:51.853Z,13.61
2023-03-25T16:12:24.358Z,13.40
2023-03-25T16:14:52.551Z,13.26
2023-03-25T16:17:21.487Z,13.34
2023-03-25T16:19:57.438Z,13.37
2023-03-25T16:22:30.025Z,13.11
2023-03-25T16:24:58.480Z,13.09
2023-03-25T16:27:30.898Z,13.11
2023-03-25T16:29:58.055Z,13.16
2023-03-25T16:32:33.446Z,13.18
2023-03-25T16:35:01.117Z,13.23
2023-03-25T16:37:28.435Z,13.19
2023-03-25T16:39:56.984Z,13.20
2023-03-25T16:42:31.430Z,13.12
2023-03-25T16:44:58.207Z,13.05
2023-03-25T16:47:25.504Z,13.04
2023-03-25T16:49:53.811Z,13.05
2023-03-25T16:52:26.306Z,13.00
2023-03-25T16:54:53.033Z,13.00
2023-03-25T16:57:29.748Z,12.88
2023-03-25T16:59:57.048Z,12.85
2023-03-25T17:02:23.942Z,12.54
2023-03-25T17:04:51.271Z,12.71
2023-03-25T17:07:21.118Z,12.73
2023-03-25T17:09:51.870Z,12.76
2023-03-25T17:12:21.127Z,12.76
2023-03-25T17:14:50.323Z,12.68
2023-03-25T17:17:23.199Z,12.56
2023-03-25T17:19:52.498Z,12.53
2023-03-25T17:23:10.413Z,12.37
2023-03-25T17:26:02.371Z,12.30
2023-03-25T17:28:38.322Z,12.28
2023-03-25T17:31:18.444Z,12.04
2023-03-25T17:34:06.806Z,12.18
2023-03-25T17:36:36.608Z,12.24
2023-03-25T17:39:05.644Z,12.25
2023-03-25T17:41:38.651Z,12.19
2023-03-25T17:44:06.123Z,12.21
2023-03-25T17:46:33.845Z,12.11
2023-03-25T17:49:01.616Z,12.15
2023-03-25T17:51:30.756Z,12.22
2023-03-25T17:53:57.630Z,12.23
2023-03-25T17:56:26.857Z,12.19
2023-03-25T17:59:00.544Z,12.19
2023-03-25T18:01:28.305Z,12.18
2023-03-25T18:03:55.335Z,11.90
2023-03-25T18:06:22.205Z,11.93
2023-03-25T18:08:49.146Z,11.98
2023-03-25T18:11:16.235Z,11.90
2023-03-25T18:13:48.981Z,11.90
2023-03-25T18:16:17.794Z,11.96
2023-03-25T18:18:44.782Z,11.80
2023-03-25T18:21:12.704Z,11.79
2023-03-25T18:23:40.338Z,11.81
2023-03-25T18:26:12.756Z,11.64
2023-03-25T18:28:43.132Z,11.81
2023-03-25T18:31:17.508Z,11.70
2023-03-25T18:33:46.518Z,11.70
2023-03-25T18:36:13.761Z,11.62
2023-03-25T18:38:41.111Z,11.69
2023-03-25T18:41:08.516Z,11.71
2023-03-25T18:43:35.623Z,11.73
2023-03-25T18:46:02.519Z,11.73
2023-03-25T18:48:29.386Z,11.69
2023-03-25T18:51:00.032Z,11.67
2023-03-25T18:53:28.718Z,11.61
2023-03-25T18:56:00.165Z,11.66
2023-03-25T18:58:31.957Z,11.61
2023-03-25T19:01:00.576Z,11.60
2023-03-25T19:03:31.639Z,11.67
2023-03-25T19:06:00.531Z,11.62
2023-03-25T19:08:28.968Z,11.52
2023-03-25T19:11:04.818Z,11.49
2023-03-25T19:13:31.839Z,11.19
2023-03-25T19:15:59.060Z,11.21
2023-03-25T19:18:26.814Z,10.76
2023-03-25T19:20:54.596Z,10.93
2023-03-25T19:23:23.306Z,11.02
2023-03-25T19:25:52.639Z,11.00
2023-03-25T19:28:21.694Z,10.99
2023-03-25T19:30:50.886Z,10.95
2023-03-25T19:33:19.545Z,11.03
2023-03-25T19:35:55.753Z,11.01
2023-03-25T19:38:23.119Z,11.03
2023-03-25T19:40:52.022Z,10.86
2023-03-25T19:43:19.039Z,10.99
2023-03-25T19:45:45.862Z,11.03
2023-03-25T19:48:12.638Z,11.04
2023-03-25T19:50:41.097Z,10.98
2023-03-25T19:53:08.267Z,10.98
2023-03-25T19:55:35.494Z,10.86
2023-03-25T19:58:03.037Z,10.91
2023-03-25T20:00:30.744Z,10.89
2023-03-25T20:03:00.878Z,10.81
2023-03-25T20:05:31.818Z,10.75
2023-03-25T20:07:58.902Z,10.69
2023-03-25T20:10:30.719Z,10.65
2023-03-25T20:12:58.052Z,10.49
2023-03-25T20:15:25.970Z,10.60
2023-03-25T20:17:54.547Z,10.66
2023-03-25T20:20:22.250Z,10.64
2023-03-25T20:22:49.178Z,10.46
2023-03-25T20:25:16.527Z,10.46
2023-03-25T20:27:44.316Z,10.55
2023-03-25T20:30:14.706Z,10.50
2023-03-25T20:32:43.647Z,10.45
2023-03-25T20:35:13.548Z,10.46
2023-03-25T20:37:41.917Z,10.42
2023-03-25T20:40:11.949Z,10.28
2023-03-25T20:42:40.561Z,10.36
2023-03-25T20:45:08.735Z,10.45
2023-03-25T20:47:35.626Z,10.33
2023-03-25T20:50:03.022Z,10.32
2023-03-25T20:52:30.471Z,10.28
2023-03-25T20:54:57.321Z,10.34
2023-03-25T20:57:24.226Z,10.44
2023-03-25T20:59:53.094Z,10.42
2023-03-25T21:02:21.134Z,10.18
2023-03-25T21:04:48.120Z,10.36
2023-03-25T21:07:18.710Z,10.31
2023-03-25T21:09:47.507Z,10.32
2023-03-25T21:12:14.408Z,10.31
2023-03-25T21:14:41.576Z,10.31
2023-03-25T21:17:08.386Z,10.36
2023-03-25T21:19:35.470Z,10.32
2023-03-25T21:22:02.362Z,10.44
2023-03-25T21:24:29.334Z,10.37
2023-03-25T21:26:56.161Z,10.44
2023-03-25T21:29:23.018Z,10.49
2023-03-25T21:31:49.931Z,10.46
2023-03-25T21:34:16.984Z,10.44
2023-03-25T21:36:43.915Z,10.48
2023-03-25T21:39:11.159Z,10.34
2023-03-25T21:41:38.527Z,10.45
2023-03-25T21:44:06.239Z,10.45
2023-03-25T21:46:33.717Z,10.29
2023-03-25T21:49:01.511Z,10.28
2023-03-25T21:51:31.011Z,10.40
2023-03-25T21:53:58.923Z,10.37
2023-03-25T21:56:27.545Z,10.31
2023-03-25T21:58:54.375Z,10.18
2023-03-25T22:01:28.706Z,10.15
2023-03-25T22:03:57.606Z,10.11
2023-03-25T22:06:27.342Z,10.06
2023-03-25T22:08:54.583Z,10.10
2023-03-25T22:11:24.382Z,9.96
2023-03-25T22:13:51.899Z,10.04
2023-03-25T22:16:20.840Z,10.07
2023-03-25T22:18:48.226Z,10.01
2023-03-25T22:21:19.007Z,10.01
2023-03-25T22:23:47.292Z,10.03
2023-03-25T22:26:16.415Z,9.95
2023-03-25T22:28:43.660Z,9.93
2023-03-25T22:31:16.520Z,9.74
2023-03-25T22:33:43.500Z,9.86
2023-03-25T22:36:13.474Z,9.98
2023-03-25T22:38:45.645Z,9.86
2023-03-25T22:41:14.290Z,9.95
2023-03-25T22:43:41.354Z,9.97
2023-03-25T22:46:09.092Z,10.01
2023-03-25T22:48:38.924Z,9.99
2023-03-25T22:51:07.586Z,10.06
2023-03-25T22:53:34.366Z,10.00
2023-03-25T22:56:01.319Z,10.08
2023-03-25T22:58:29.666Z,10.03
2023-03-25T23:00:57.755Z,10.07
2023-03-25T23:03:26.265Z,10.15
2023-03-25T23:06:01.923Z,10.10
2023-03-25T23:08:31.777Z,10.20
2023-03-25T23:11:08.020Z,10.20
2023-03-25T23:13:35.798Z,10.15
2023-03-25T23:16:09.192Z,10.10
2023-03-25T23:18:37.132Z,10.17
2023-03-25T23:21:04.318Z,9.88
2023-03-25T23:23:31.735Z,9.83
2023-03-25T23:26:03.730Z,10.05
2023-03-25T23:28:34.532Z,9.95
2023-03-25T23:31:02.275Z,10.02
2023-03-25T23:33:30.243Z,10.05
2023-03-25T23:36:05.653Z,9.91
2023-03-25T23:38:32.870Z,9.93
2023-03-25T23:41:10.183Z,9.84
2023-03-25T23:43:37.380Z,9.97
2023-03-25T23:46:05.773Z,9.96
2023-03-25T23:48:33.643Z,9.66
2023-03-25T23:51:00.457Z,9.57
2023-03-25T23:53:27.776Z,9.68
2023-03-25T23:55:55.685Z,9.70
2023-03-25T23:58:25.287Z,9.83
